Skip Navigation LinksHome page > Weather > Current weather Skip Navigation Links

Current Weather

Tweed-New Haven, New Haven, Conn.

For information only: do not use for flight planning or navigation.
Latest weather
Observation time Friday, August 14, 2020 12:53 PM EDT
Local time Friday, August 14, 2020 1:39 PM EDT
Flight conditions Visual Meteorological Conditions
Winds
Wind direction Southeast (130°)
Wind speed 12 mph
Visibility 10 mi.
Sky condition
Ceiling unlimited
Cloud layer few clouds 7,000 ft.
Temperature 87°F
Dewpoint 68°F
Altimeter 30.02 in.Hg
Derived measurements
Relative humidity 53%
Heat index 91°F
Density altitude 2005 ft.
Sea-level pressure 30.01 in.Hg
Remarks
Automated weather observing station with precipitation discriminator.
METAR KHVN 141653Z 13010KT 10SM FEW070 31/20 A3002 RMK AO2 SLP164 T03060200

Settings

Location code

InnerDrive.Weather 4.0.6770.0 Release CLR 4.0.30319.42000
Copyright ©2018 Inner Drive Technology. All rights reserved. Portions Copyright ©1986-2018 David Braverman.

Find weather

Site navigation


Skip Navigation Links

Place info

Page info

PayPal - The safer, easier way to pay online!

Return home.

Copyright ©2020 Inner Drive Technology. Purveyors of fine, hand-crafted computer software. Page printed 2020-08-14T17:39:33 UTC.